Time;durP1;ratioP1;P1;durP2;ratioP2;P2;SDS_P1;SDS_P2;PMS_P1;PMS_P2;Temp;Humidity;BMP_temperature;BMP_pressure;BME280_temperature;BME280_humidity;BME280_pressure;Samples;Min_cycle;Max_cycle;Signal;HPM_P1;HPM_P2
2020/12/25 00:01:51;;;;;;;;;;;16.30;75.40;;;;;;5031846;28;19915;-61
2020/12/25 00:04:17;;;;;;;;;;;16.30;75.40;;;;;;5016121;28;20404;-61
2020/12/25 00:06:42;;;;;;;;;;;16.30;75.30;;;;;;5032850;28;19909;-62
2020/12/25 00:09:08;;;;;;;;;;;16.30;75.20;;;;;;5032747;28;19917;-62
2020/12/25 00:11:35;;;;;;;;;;;16.30;75.20;;;;;;5031261;28;19909;-62
2020/12/25 00:14:00;;;;;;;;;;;16.30;75.10;;;;;;5032952;28;19915;-62
2020/12/25 00:16:27;;;;;;;;;;;16.30;75.00;;;;;;5015308;28;20007;-62
2020/12/25 00:18:53;;;;;;;;;;;16.30;74.90;;;;;;5031557;28;19917;-62
2020/12/25 00:21:18;;;;;;;;;;;16.30;74.80;;;;;;5015599;28;19955;-60
2020/12/25 00:23:44;;;;;;;;;;;16.30;74.90;;;;;;5033263;28;20382;-62
2020/12/25 00:26:09;;;;;;;;;;;16.20;74.80;;;;;;5032843;28;19991;-63
2020/12/25 00:28:35;;;;;;;;;;;16.20;74.70;;;;;;5031957;28;19909;-62
2020/12/25 00:31:00;;;;;;;;;;;16.20;74.80;;;;;;5032654;28;19949;-62
2020/12/25 00:33:26;;;;;;;;;;;16.20;74.70;;;;;;5031717;28;20369;-61
2020/12/25 00:35:51;;;;;;;;;;;16.20;74.70;;;;;;5031766;28;19909;-62
2020/12/25 00:38:16;;;;;;;;;;;16.20;74.60;;;;;;5025341;28;19964;-62
2020/12/25 00:40:45;;;;;;;;;;;16.20;74.60;;;;;;5014544;28;20000;-61
2020/12/25 00:43:10;;;;;;;;;;;16.20;74.50;;;;;;5031803;28;19915;-62
2020/12/25 00:45:37;;;;;;;;;;;16.10;75.00;;;;;;5014292;28;19992;-62
2020/12/25 00:48:02;;;;;;;;;;;16.10;74.40;;;;;;5014150;28;19916;-61
2020/12/25 00:50:28;;;;;;;;;;;16.10;74.50;;;;;;5013873;28;19913;-62
2020/12/25 00:52:53;;;;;;;;;;;16.10;74.50;;;;;;5032500;28;19931;-61
2020/12/25 00:55:19;;;;;;;;;;;16.10;74.40;;;;;;5031472;28;19916;-61
2020/12/25 00:57:44;;;;;;;;;;;16.10;74.40;;;;;;5032219;28;19955;-60
2020/12/25 01:00:09;;;;;;;;;;;16.10;74.40;;;;;;5031507;28;19919;-62
2020/12/25 01:02:35;;;;;;;;;;;16.10;74.40;;;;;;5031917;28;19995;-62
2020/12/25 01:05:00;;;;;;;;;;;16.10;74.40;;;;;;5032583;28;19909;-61
2020/12/25 01:07:26;;;;;;;;;;;16.10;74.30;;;;;;5031343;28;19967;-61
2020/12/25 01:09:51;;;;;;;;;;;16.10;74.30;;;;;;5031389;28;19921;-61
2020/12/25 01:12:17;;;;;;;;;;;16.00;74.10;;;;;;5030956;28;20561;-62
2020/12/25 01:14:42;;;;;;;;;;;16.00;74.20;;;;;;5032468;28;19905;-63
2020/12/25 01:17:08;;;;;;;;;;;16.00;74.10;;;;;;5031596;28;19936;-60
2020/12/25 01:19:33;;;;;;;;;;;16.00;74.10;;;;;;5031421;28;19920;-61
2020/12/25 01:21:58;;;;;;;;;;;16.00;74.00;;;;;;5013666;28;19921;-61
2020/12/25 01:24:25;;;;;;;;;;;16.00;74.00;;;;;;5031918;28;19909;-62
2020/12/25 01:26:51;;;;;;;;;;;16.00;74.20;;;;;;5031748;28;19916;-62
2020/12/25 01:29:16;;;;;;;;;;;16.00;74.00;;;;;;5030689;28;19909;-62
2020/12/25 01:31:41;;;;;;;;;;;16.00;73.90;;;;;;5013821;28;19916;-62
2020/12/25 01:34:07;;;;;;;;;;;15.90;73.90;;;;;;5031866;28;19913;-61
2020/12/25 01:36:32;;;;;;;;;;;15.90;73.80;;;;;;5031875;28;19909;-62
2020/12/25 01:38:58;;;;;;;;;;;16.00;73.80;;;;;;5029853;28;19913;-62
2020/12/25 01:41:23;;;;;;;;;;;15.90;73.80;;;;;;5013672;28;19958;-61
2020/12/25 01:43:49;;;;;;;;;;;15.90;73.70;;;;;;5031241;28;19920;-63
2020/12/25 01:46:14;;;;;;;;;;;15.90;73.70;;;;;;5031274;28;20259;-63
2020/12/25 01:48:41;;;;;;;;;;;15.90;73.60;;;;;;5030417;28;19948;-62
2020/12/25 01:51:07;;;;;;;;;;;15.90;73.60;;;;;;5030215;28;20001;-62
2020/12/25 01:53:33;;;;;;;;;;;15.90;73.60;;;;;;5031235;28;19951;-61
2020/12/25 01:55:59;;;;;;;;;;;15.90;73.60;;;;;;5012963;28;20324;-63
2020/12/25 01:58:24;;;;;;;;;;;15.90;73.60;;;;;;5030747;28;19997;-62
2020/12/25 02:00:50;;;;;;;;;;;15.90;73.60;;;;;;5030538;28;20007;-62
2020/12/25 02:03:16;;;;;;;;;;;15.80;73.50;;;;;;5030607;28;19909;-61
2020/12/25 02:05:45;;;;;;;;;;;15.80;73.40;;;;;;5031299;28;20416;-62
2020/12/25 02:08:11;;;;;;;;;;;15.80;73.40;;;;;;5029957;28;20297;-61
2020/12/25 02:10:37;;;;;;;;;;;15.80;73.40;;;;;;5036475;28;19947;-61
2020/12/25 02:13:02;;;;;;;;;;;15.80;73.40;;;;;;5048658;28;20532;-60
2020/12/25 02:15:28;;;;;;;;;;;15.80;73.40;;;;;;5030526;28;19909;-62
2020/12/25 02:17:53;;;;;;;;;;;15.80;73.40;;;;;;5012635;28;20258;-61
2020/12/25 02:20:19;;;;;;;;;;;15.80;73.40;;;;;;5011880;28;19916;-64
2020/12/25 02:22:44;;;;;;;;;;;15.80;73.30;;;;;;5030321;28;19999;-61
2020/12/25 02:25:10;;;;;;;;;;;15.80;73.20;;;;;;5030309;28;20385;-61
2020/12/25 02:27:36;;;;;;;;;;;15.70;73.10;;;;;;5030430;28;20281;-61
2020/12/25 02:30:02;;;;;;;;;;;15.70;73.10;;;;;;5029983;28;19909;-61
2020/12/25 02:32:28;;;;;;;;;;;15.70;73.00;;;;;;5030466;28;19916;-61
2020/12/25 02:34:53;;;;;;;;;;;15.70;73.00;;;;;;5030705;28;19909;-62
2020/12/25 02:37:19;;;;;;;;;;;15.70;73.00;;;;;;5030418;28;19909;-61
2020/12/25 02:39:44;;;;;;;;;;;15.70;73.00;;;;;;5029764;28;19928;-61
2020/12/25 02:42:10;;;;;;;;;;;15.70;73.00;;;;;;5012763;28;19913;-61
2020/12/25 02:44:36;;;;;;;;;;;15.70;73.00;;;;;;5030795;28;19909;-60
2020/12/25 02:47:01;;;;;;;;;;;15.70;73.00;;;;;;5030377;28;19971;-61
2020/12/25 02:49:27;;;;;;;;;;;15.60;73.00;;;;;;5029452;28;19996;-60
2020/12/25 02:51:53;;;;;;;;;;;15.60;72.90;;;;;;5024499;28;19913;-62
2020/12/25 02:54:18;;;;;;;;;;;15.60;73.00;;;;;;5030738;28;19909;-61
2020/12/25 02:56:44;;;;;;;;;;;15.60;73.00;;;;;;5012571;28;19936;-61
2020/12/25 02:59:10;;;;;;;;;;;15.60;72.90;;;;;;5029793;28;19920;-61
2020/12/25 03:01:35;;;;;;;;;;;15.60;73.00;;;;;;5011397;28;19909;-61
2020/12/25 03:04:00;;;;;;;;;;;15.60;72.90;;;;;;5028743;28;19916;-63
2020/12/25 03:06:26;;;;;;;;;;;15.60;73.00;;;;;;5030470;28;19913;-63
2020/12/25 03:08:51;;;;;;;;;;;15.60;73.00;;;;;;5012186;28;19909;-61
2020/12/25 03:11:17;;;;;;;;;;;15.60;72.90;;;;;;5029769;28;20271;-62
2020/12/25 03:13:42;;;;;;;;;;;15.60;72.90;;;;;;5029713;28;20369;-61
2020/12/25 03:16:08;;;;;;;;;;;15.50;72.90;;;;;;5030072;28;20104;-61
2020/12/25 03:18:33;;;;;;;;;;;15.50;72.90;;;;;;5029607;28;20442;-61
2020/12/25 03:20:59;;;;;;;;;;;15.50;72.80;;;;;;5012365;28;20297;-59
2020/12/25 03:23:24;;;;;;;;;;;15.50;72.70;;;;;;5030079;28;19913;-61
2020/12/25 03:25:50;;;;;;;;;;;15.50;72.80;;;;;;5029682;28;19972;-61
2020/12/25 03:28:15;;;;;;;;;;;15.50;72.70;;;;;;5011866;28;19909;-61
2020/12/25 03:30:40;;;;;;;;;;;15.50;72.70;;;;;;5022904;28;19909;-61
2020/12/25 03:33:06;;;;;;;;;;;15.50;73.20;;;;;;5029257;28;19913;-61
2020/12/25 03:35:31;;;;;;;;;;;15.50;72.70;;;;;;5033334;28;19909;-61
2020/12/25 03:37:57;;;;;;;;;;;15.40;72.70;;;;;;5015933;28;19983;-61
2020/12/25 03:40:22;;;;;;;;;;;15.40;72.80;;;;;;5033381;28;19967;-60
2020/12/25 03:42:48;;;;;;;;;;;15.40;73.30;;;;;;5015619;28;19924;-61
2020/12/25 03:45:14;;;;;;;;;;;15.40;72.80;;;;;;5033444;28;20008;-61
2020/12/25 03:47:39;;;;;;;;;;;15.40;72.80;;;;;;5032985;28;20059;-61
2020/12/25 03:50:05;;;;;;;;;;;15.40;72.70;;;;;;5033330;28;19916;-61
2020/12/25 03:52:30;;;;;;;;;;;15.40;72.70;;;;;;5016152;28;19911;-61
2020/12/25 03:54:56;;;;;;;;;;;15.30;72.70;;;;;;5033407;28;19913;-62
2020/12/25 03:57:21;;;;;;;;;;;15.40;72.70;;;;;;5033152;28;19989;-62
2020/12/25 03:59:46;;;;;;;;;;;15.40;72.70;;;;;;5032758;28;20014;-62
2020/12/25 04:02:12;;;;;;;;;;;15.40;72.80;;;;;;5032050;28;19955;-62
2020/12/25 04:04:37;;;;;;;;;;;15.40;72.70;;;;;;5032907;28;19913;-59
2020/12/25 04:07:03;;;;;;;;;;;15.40;72.80;;;;;;5015366;28;20433;-60
2020/12/25 04:09:28;;;;;;;;;;;15.30;72.70;;;;;;5033715;28;19955;-61
2020/12/25 04:11:54;;;;;;;;;;;15.30;72.70;;;;;;5033020;28;19929;-61
2020/12/25 04:14:19;;;;;;;;;;;15.30;72.70;;;;;;5032767;28;19912;-61
2020/12/25 04:16:45;;;;;;;;;;;15.30;72.70;;;;;;5033188;28;19931;-61
2020/12/25 04:19:11;;;;;;;;;;;15.30;72.70;;;;;;5032121;28;19979;-61
2020/12/25 04:21:40;;;;;;;;;;;15.30;72.60;;;;;;5015707;28;20385;-61
2020/12/25 04:24:05;;;;;;;;;;;15.30;72.70;;;;;;5032856;28;19909;-62
2020/12/25 04:26:31;;;;;;;;;;;15.30;72.70;;;;;;5032681;28;20027;-62
2020/12/25 04:28:56;;;;;;;;;;;15.30;72.70;;;;;;5032764;28;19920;-60
2020/12/25 04:31:25;;;;;;;;;;;15.20;72.70;;;;;;5032232;28;19971;-61
2020/12/25 04:33:51;;;;;;;;;;;15.20;72.70;;;;;;5032529;28;19909;-62
2020/12/25 04:36:17;;;;;;;;;;;15.20;72.70;;;;;;5014835;28;19913;-61
2020/12/25 04:38:43;;;;;;;;;;;15.20;72.70;;;;;;5014471;28;19995;-61
2020/12/25 04:41:08;;;;;;;;;;;15.20;72.70;;;;;;5032607;28;19909;-62
2020/12/25 04:43:35;;;;;;;;;;;15.20;72.80;;;;;;5013933;28;19909;-61
2020/12/25 04:46:01;;;;;;;;;;;15.20;72.70;;;;;;5032022;28;19913;-61
2020/12/25 04:48:27;;;;;;;;;;;15.20;72.70;;;;;;5031964;28;19912;-62
2020/12/25 04:50:52;;;;;;;;;;;15.20;72.70;;;;;;5032276;28;20293;-60
2020/12/25 04:53:18;;;;;;;;;;;15.20;72.70;;;;;;5032725;28;19955;-61
2020/12/25 04:55:44;;;;;;;;;;;15.20;72.60;;;;;;5032565;28;19919;-62
2020/12/25 04:58:09;;;;;;;;;;;15.10;72.60;;;;;;5032252;28;19909;-62
2020/12/25 05:00:34;;;;;;;;;;;15.20;72.80;;;;;;5011671;28;19921;-61
2020/12/25 05:03:00;;;;;;;;;;;15.20;72.70;;;;;;5032033;28;19911;-61
2020/12/25 05:05:29;;;;;;;;;;;15.10;72.70;;;;;;5015394;28;19944;-61
2020/12/25 05:07:56;;;;;;;;;;;15.20;72.70;;;;;;5030926;28;19905;-61
2020/12/25 05:10:21;;;;;;;;;;;15.10;72.60;;;;;;5031658;28;19920;-61
2020/12/25 05:12:47;;;;;;;;;;;15.10;72.60;;;;;;5032051;28;19913;-62
2020/12/25 05:15:14;;;;;;;;;;;15.10;72.60;;;;;;5031897;28;19905;-61
2020/12/25 05:17:40;;;;;;;;;;;15.10;72.60;;;;;;5032038;28;19916;-61
2020/12/25 05:20:05;;;;;;;;;;;15.10;72.60;;;;;;5031764;28;19963;-62
2020/12/25 05:22:31;;;;;;;;;;;15.10;72.60;;;;;;5031303;28;19909;-62
2020/12/25 05:24:59;;;;;;;;;;;15.10;72.60;;;;;;5031526;28;19913;-62
2020/12/25 05:27:26;;;;;;;;;;;15.10;72.60;;;;;;5013441;28;19971;-61
2020/12/25 05:29:55;;;;;;;;;;;15.10;72.60;;;;;;5031500;28;19913;-63
2020/12/25 05:32:22;;;;;;;;;;;15.10;72.60;;;;;;5029247;28;19913;-62
2020/12/25 05:34:48;;;;;;;;;;;15.10;72.70;;;;;;5031486;28;20004;-62
2020/12/25 05:37:13;;;;;;;;;;;15.10;72.60;;;;;;5030864;28;19943;-62
2020/12/25 05:39:39;;;;;;;;;;;15.10;72.60;;;;;;5013864;28;19956;-62
2020/12/25 05:42:05;;;;;;;;;;;15.10;72.60;;;;;;5012834;28;19909;-61
2020/12/25 05:45:00;;;;;;;;;;;15.10;72.60;;;;;;5031895;28;19909;-61
2020/12/25 05:47:25;;;;;;;;;;;15.10;72.60;;;;;;5013472;28;19916;-61
2020/12/25 05:49:52;;;;;;;;;;;15.10;72.60;;;;;;5030812;28;19909;-61
2020/12/25 05:52:17;;;;;;;;;;;15.10;72.70;;;;;;5031397;28;20463;-62
2020/12/25 05:54:44;;;;;;;;;;;15.10;72.80;;;;;;5031117;28;19924;-61
2020/12/25 05:57:10;;;;;;;;;;;15.00;72.80;;;;;;5029767;28;20293;-62
2020/12/25 05:59:35;;;;;;;;;;;15.00;72.80;;;;;;5030857;28;19974;-63
2020/12/25 06:02:02;;;;;;;;;;;15.00;72.80;;;;;;5030535;28;19908;-62
2020/12/25 06:04:29;;;;;;;;;;;15.00;72.80;;;;;;5012696;28;20008;-61
2020/12/25 06:06:54;;;;;;;;;;;15.10;72.90;;;;;;5030786;28;19916;-60
2020/12/25 06:09:21;;;;;;;;;;;15.00;72.80;;;;;;5030374;28;19909;-62
2020/12/25 06:11:48;;;;;;;;;;;15.00;72.80;;;;;;5030225;28;20467;-61
2020/12/25 06:14:14;;;;;;;;;;;15.00;72.90;;;;;;5030816;28;19909;-61
2020/12/25 06:16:59;;;;;;;;;;;15.00;72.90;;;;;;5030743;28;19962;-61
2020/12/25 06:19:32;;;;;;;;;;;15.00;72.90;;;;;;5029821;28;19913;-61
2020/12/25 06:22:05;;;;;;;;;;;15.00;72.90;;;;;;5028008;28;19909;-60
2020/12/25 06:24:32;;;;;;;;;;;15.00;72.80;;;;;;5030963;28;20404;-62
2020/12/25 06:27:00;;;;;;;;;;;15.00;72.90;;;;;;5029987;28;19920;-61
2020/12/25 06:29:26;;;;;;;;;;;14.90;72.90;;;;;;5013101;28;20023;-63
2020/12/25 06:31:53;;;;;;;;;;;15.00;73.10;;;;;;5013345;28;20428;-62
2020/12/25 06:34:19;;;;;;;;;;;14.90;72.90;;;;;;5030841;28;19931;-62
2020/12/25 06:36:45;;;;;;;;;;;14.90;72.90;;;;;;5013620;28;20381;-62
2020/12/25 06:39:14;;;;;;;;;;;14.90;72.90;;;;;;5012593;28;20003;-61
2020/12/25 06:41:40;;;;;;;;;;;14.90;72.90;;;;;;5030453;28;19927;-61
2020/12/25 06:44:17;;;;;;;;;;;14.90;72.90;;;;;;5030487;28;19996;-61
2020/12/25 06:46:50;;;;;;;;;;;14.90;72.90;;;;;;5030647;28;20282;-62
2020/12/25 06:49:16;;;;;;;;;;;14.80;72.90;;;;;;5012489;28;19908;-62
2020/12/25 06:51:42;;;;;;;;;;;14.90;73.00;;;;;;5029686;28;20390;-62
2020/12/25 06:54:16;;;;;;;;;;;14.80;72.90;;;;;;5030107;28;19955;-61
2020/12/25 06:56:42;;;;;;;;;;;14.80;73.00;;;;;;5030664;28;19921;-62
2020/12/25 06:59:17;;;;;;;;;;;14.80;72.90;;;;;;5031717;28;19924;-62
2020/12/25 07:01:43;;;;;;;;;;;14.80;73.00;;;;;;5029713;28;19909;-61
2020/12/25 07:04:21;;;;;;;;;;;14.80;73.00;;;;;;5029669;28;19916;-61
2020/12/25 07:06:50;;;;;;;;;;;14.80;73.00;;;;;;5030049;28;20436;-62
2020/12/25 07:09:15;;;;;;;;;;;14.80;73.00;;;;;;5015087;28;19931;-62
2020/12/25 07:11:41;;;;;;;;;;;14.80;73.00;;;;;;5034641;28;19913;-62
2020/12/25 07:14:09;;;;;;;;;;;14.80;73.00;;;;;;5033190;28;19913;-60
2020/12/25 07:16:35;;;;;;;;;;;14.70;72.90;;;;;;5016656;28;19916;-61
2020/12/25 07:19:00;;;;;;;;;;;14.80;73.00;;;;;;5032492;28;19909;-62
2020/12/25 07:21:28;;;;;;;;;;;14.80;73.10;;;;;;5016272;28;19913;-63
2020/12/25 07:23:53;;;;;;;;;;;14.70;73.00;;;;;;5034039;28;19924;-62
2020/12/25 07:26:19;;;;;;;;;;;14.80;73.10;;;;;;5033833;28;19917;-61
2020/12/25 07:28:45;;;;;;;;;;;14.70;73.00;;;;;;5014554;28;19909;-61
2020/12/25 07:31:11;;;;;;;;;;;14.70;73.00;;;;;;5033750;28;19909;-61
2020/12/25 07:33:36;;;;;;;;;;;14.70;72.90;;;;;;5016471;28;19909;-60
2020/12/25 07:36:06;;;;;;;;;;;14.70;72.90;;;;;;5033485;28;19913;-61
2020/12/25 07:38:32;;;;;;;;;;;14.70;73.00;;;;;;5033605;28;19913;-61
2020/12/25 07:40:57;;;;;;;;;;;14.60;73.10;;;;;;5033321;28;20377;-62
2020/12/25 07:43:23;;;;;;;;;;;14.70;73.30;;;;;;5033682;28;20357;-61
2020/12/25 07:45:48;;;;;;;;;;;14.60;73.60;;;;;;5034095;28;20376;-61
2020/12/25 07:48:14;;;;;;;;;;;14.60;73.50;;;;;;5033043;28;19916;-61
2020/12/25 07:50:40;;;;;;;;;;;14.60;73.50;;;;;;5033801;28;19916;-61
2020/12/25 07:53:13;;;;;;;;;;;14.60;73.50;;;;;;5033394;28;19990;-59
2020/12/25 07:55:38;;;;;;;;;;;14.60;73.50;;;;;;4998183;28;19948;-61
2020/12/25 07:58:04;;;;;;;;;;;14.60;73.40;;;;;;5020884;28;19948;-61
2020/12/25 08:00:30;;;;;;;;;;;14.60;73.40;;;;;;5032942;28;19934;-60
2020/12/25 08:02:57;;;;;;;;;;;14.60;73.30;;;;;;5014215;28;19912;-61
2020/12/25 08:05:22;;;;;;;;;;;14.60;73.20;;;;;;5032835;28;20463;-61
2020/12/25 08:07:48;;;;;;;;;;;14.60;73.80;;;;;;5033266;28;19909;-61
2020/12/25 08:10:14;;;;;;;;;;;14.60;73.30;;;;;;5033466;28;19908;-61
2020/12/25 08:12:43;;;;;;;;;;;14.60;73.40;;;;;;5031775;28;19916;-61
2020/12/25 08:15:09;;;;;;;;;;;14.60;73.40;;;;;;5032205;28;19916;-61
2020/12/25 08:17:34;;;;;;;;;;;14.60;73.40;;;;;;5032002;28;19908;-61
2020/12/25 08:20:03;;;;;;;;;;;14.60;73.40;;;;;;5032464;28;19913;-60
2020/12/25 08:22:28;;;;;;;;;;;14.60;73.70;;;;;;5012948;28;20011;-62
2020/12/25 08:24:54;;;;;;;;;;;14.60;74.20;;;;;;5009757;28;20036;-61
2020/12/25 08:27:20;;;;;;;;;;;14.50;74.50;;;;;;5032051;28;19959;-60
2020/12/25 08:29:48;;;;;;;;;;;14.50;74.60;;;;;;5031520;28;19905;-61
2020/12/25 08:32:13;;;;;;;;;;;14.50;74.70;;;;;;5032221;28;20312;-61
2020/12/25 08:34:39;;;;;;;;;;;14.50;74.50;;;;;;5032113;28;19909;-60
2020/12/25 08:37:07;;;;;;;;;;;14.60;74.40;;;;;;5014356;28;19924;-61
2020/12/25 08:39:33;;;;;;;;;;;14.60;74.20;;;;;;5031150;28;19971;-61
2020/12/25 08:41:59;;;;;;;;;;;14.60;74.00;;;;;;5026339;28;19978;-60
2020/12/25 08:44:25;;;;;;;;;;;14.60;73.90;;;;;;5030753;28;19916;-60
2020/12/25 08:46:51;;;;;;;;;;;14.60;73.70;;;;;;5013746;28;19913;-59
2020/12/25 08:49:26;;;;;;;;;;;14.70;73.60;;;;;;5025579;28;19913;-62
2020/12/25 08:51:52;;;;;;;;;;;14.70;73.50;;;;;;5031462;28;19917;-59
2020/12/25 08:54:25;;;;;;;;;;;14.70;73.30;;;;;;5013872;28;19962;-61
2020/12/25 08:56:50;;;;;;;;;;;14.70;73.70;;;;;;5016649;28;19908;-59
2020/12/25 08:59:16;;;;;;;;;;;14.70;73.00;;;;;;5038093;28;19912;-60
2020/12/25 09:01:42;;;;;;;;;;;14.70;72.80;;;;;;5036200;28;19912;-62
2020/12/25 09:04:11;;;;;;;;;;;14.70;72.70;;;;;;5037348;28;20377;-61
2020/12/25 09:06:37;;;;;;;;;;;14.70;73.00;;;;;;5030226;28;19941;-60
2020/12/25 09:09:02;;;;;;;;;;;14.70;73.10;;;;;;5019463;28;19959;-60
2020/12/25 09:11:28;;;;;;;;;;;14.70;72.90;;;;;;5035340;28;19913;-62
2020/12/25 09:13:53;;;;;;;;;;;14.70;72.90;;;;;;5020189;28;20277;-62
2020/12/25 09:16:19;;;;;;;;;;;14.70;72.80;;;;;;5021191;28;19909;-61
2020/12/25 09:18:44;;;;;;;;;;;14.70;72.80;;;;;;5016489;28;19917;-62
2020/12/25 09:21:11;;;;;;;;;;;14.70;72.70;;;;;;5038211;28;20427;-61
2020/12/25 09:23:37;;;;;;;;;;;14.70;72.70;;;;;;5041339;28;20107;-61
2020/12/25 09:26:03;;;;;;;;;;;14.70;72.60;;;;;;5018977;28;19913;-60
2020/12/25 09:28:29;;;;;;;;;;;14.70;72.50;;;;;;5033062;28;19913;-60
2020/12/25 09:30:54;;;;;;;;;;;14.70;72.50;;;;;;5011009;28;19913;-61
2020/12/25 09:33:20;;;;;;;;;;;14.70;72.50;;;;;;5005408;28;20289;-61
2020/12/25 09:35:46;;;;;;;;;;;14.80;72.40;;;;;;5006075;28;19976;-61
2020/12/25 09:38:11;;;;;;;;;;;14.80;72.50;;;;;;5007466;28;19959;-61
2020/12/25 09:40:37;;;;;;;;;;;14.80;72.60;;;;;;5020486;28;19987;-62
2020/12/25 09:43:02;;;;;;;;;;;14.80;72.90;;;;;;5007734;28;19916;-61
2020/12/25 09:45:28;;;;;;;;;;;14.80;72.60;;;;;;5025953;28;19912;-62
2020/12/25 09:47:53;;;;;;;;;;;14.80;72.60;;;;;;5010841;28;20373;-61
2020/12/25 09:50:19;;;;;;;;;;;14.80;72.50;;;;;;5008129;28;20263;-61
2020/12/25 09:52:44;;;;;;;;;;;14.90;72.20;;;;;;5029253;28;19921;-62
2020/12/25 09:55:10;;;;;;;;;;;15.00;72.10;;;;;;5025592;28;19909;-61
2020/12/25 09:57:35;;;;;;;;;;;15.20;71.40;;;;;;5030203;28;20285;-61
2020/12/25 10:00:07;;;;;;;;;;;15.30;70.60;;;;;;5009907;28;20034;-61
2020/12/25 10:02:32;;;;;;;;;;;15.20;70.20;;;;;;5025525;28;19923;-63
2020/12/25 10:04:58;;;;;;;;;;;15.10;70.50;;;;;;5028913;28;20321;-60
2020/12/25 10:07:23;;;;;;;;;;;15.10;70.90;;;;;;5011131;28;20365;-60
2020/12/25 10:09:49;;;;;;;;;;;15.10;71.30;;;;;;5025688;28;20397;-62
2020/12/25 10:12:14;;;;;;;;;;;15.00;71.40;;;;;;5009573;28;19944;-62
2020/12/25 10:14:39;;;;;;;;;;;15.00;71.40;;;;;;5027501;28;19963;-62
2020/12/25 10:17:05;;;;;;;;;;;15.00;71.60;;;;;;5008348;28;19924;-61
2020/12/25 10:19:30;;;;;;;;;;;15.00;71.90;;;;;;5029230;28;19966;-61
2020/12/25 10:21:56;;;;;;;;;;;15.10;71.90;;;;;;5025416;28;19917;-61
2020/12/25 10:24:21;;;;;;;;;;;15.10;71.50;;;;;;5027410;28;20297;-61
2020/12/25 10:26:48;;;;;;;;;;;15.10;71.30;;;;;;5024660;28;19955;-62
2020/12/25 10:29:13;;;;;;;;;;;15.10;71.40;;;;;;5028718;28;20258;-61
2020/12/25 10:31:39;;;;;;;;;;;15.10;71.50;;;;;;5028550;28;19923;-61
2020/12/25 10:34:04;;;;;;;;;;;15.10;71.20;;;;;;5029494;28;20644;-62
2020/12/25 10:36:30;;;;;;;;;;;15.10;71.30;;;;;;5028921;28;20590;-61
2020/12/25 10:38:55;;;;;;;;;;;15.20;71.40;;;;;;5028578;28;19913;-61
2020/12/25 10:41:21;;;;;;;;;;;15.20;71.40;;;;;;5030267;28;20365;-62
2020/12/25 10:43:46;;;;;;;;;;;15.50;71.30;;;;;;5011661;28;20280;-61
2020/12/25 10:46:18;;;;;;;;;;;15.70;70.60;;;;;;5021540;28;19963;-61
2020/12/25 10:48:43;;;;;;;;;;;15.90;69.70;;;;;;5026438;28;19909;-62
2020/12/25 10:51:09;;;;;;;;;;;16.00;68.90;;;;;;5028329;28;20512;-61
2020/12/25 10:53:35;;;;;;;;;;;16.00;68.70;;;;;;5007873;28;20381;-62
2020/12/25 10:56:01;;;;;;;;;;;15.90;68.10;;;;;;5028637;28;19905;-61
2020/12/25 10:58:26;;;;;;;;;;;16.00;68.70;;;;;;5008670;28;20197;-62
2020/12/25 11:00:52;;;;;;;;;;;16.20;68.00;;;;;;5010959;28;19916;-63
2020/12/25 11:03:17;;;;;;;;;;;16.10;67.40;;;;;;5029265;28;20297;-61
2020/12/25 11:05:43;;;;;;;;;;;16.10;67.90;;;;;;5028734;28;20022;-62
2020/12/25 11:08:08;;;;;;;;;;;16.20;68.10;;;;;;5006894;28;19905;-62
2020/12/25 11:10:34;;;;;;;;;;;16.30;67.50;;;;;;5000253;28;19916;-61
2020/12/25 11:12:59;;;;;;;;;;;16.60;67.30;;;;;;4999210;28;19916;-61
2020/12/25 11:15:25;;;;;;;;;;;16.80;66.00;;;;;;5026497;28;19948;-61
2020/12/25 11:17:50;;;;;;;;;;;16.90;65.60;;;;;;5024207;28;20640;-62
2020/12/25 11:20:16;;;;;;;;;;;17.20;64.80;;;;;;5019608;28;19928;-61
2020/12/25 11:22:41;;;;;;;;;;;17.30;64.80;;;;;;5011811;28;19909;-62
2020/12/25 11:25:07;;;;;;;;;;;17.30;64.70;;;;;;5029122;28;20405;-61
2020/12/25 11:27:32;;;;;;;;;;;17.40;64.70;;;;;;5028508;28;19905;-61
2020/12/25 11:29:57;;;;;;;;;;;17.30;65.10;;;;;;5011080;28;19909;-62
2020/12/25 11:32:23;;;;;;;;;;;17.30;65.90;;;;;;5011657;28;19905;-62
2020/12/25 11:34:48;;;;;;;;;;;17.20;66.40;;;;;;5027287;28;19952;-61
2020/12/25 11:37:14;;;;;;;;;;;17.20;67.00;;;;;;5028797;28;19956;-61
2020/12/25 11:39:39;;;;;;;;;;;17.40;67.40;;;;;;5011389;28;19916;-62
2020/12/25 11:42:05;;;;;;;;;;;17.40;67.10;;;;;;5029295;28;19968;-63
2020/12/25 11:44:31;;;;;;;;;;;17.40;66.90;;;;;;5029889;28;19959;-62
2020/12/25 11:47:00;;;;;;;;;;;17.50;66.90;;;;;;5011791;28;19913;-62
2020/12/25 11:49:25;;;;;;;;;;;17.50;67.30;;;;;;5029439;28;19910;-64
2020/12/25 11:51:56;;;;;;;;;;;17.60;67.40;;;;;;5030007;28;20400;-64
2020/12/25 11:54:21;;;;;;;;;;;17.70;67.40;;;;;;5012130;28;19909;-64
2020/12/25 11:56:47;;;;;;;;;;;17.80;67.50;;;;;;5035074;28;19920;-65
2020/12/25 11:59:12;;;;;;;;;;;17.80;67.30;;;;;;5032928;28;19916;-64
2020/12/25 12:01:38;;;;;;;;;;;17.90;66.90;;;;;;5018878;28;19932;-65
2020/12/25 12:04:03;;;;;;;;;;;18.00;67.20;;;;;;5032062;28;19913;-64
2020/12/25 12:06:29;;;;;;;;;;;18.10;66.80;;;;;;5031353;28;20007;-63
2020/12/25 12:08:54;;;;;;;;;;;18.10;67.00;;;;;;5031870;28;19964;-64
2020/12/25 12:11:20;;;;;;;;;;;18.10;67.00;;;;;;5024610;28;19920;-66
2020/12/25 12:13:46;;;;;;;;;;;18.10;66.80;;;;;;5001120;28;19920;-65
2020/12/25 12:16:12;;;;;;;;;;;18.10;66.20;;;;;;5019491;28;19999;-66
2020/12/25 12:18:38;;;;;;;;;;;18.20;66.10;;;;;;5025178;28;19913;-64
2020/12/25 12:21:03;;;;;;;;;;;18.10;66.00;;;;;;5026388;28;19920;-66
2020/12/25 12:23:29;;;;;;;;;;;18.20;66.30;;;;;;5008512;28;20332;-65
2020/12/25 12:25:55;;;;;;;;;;;18.30;65.50;;;;;;5035780;28;20507;-65
2020/12/25 12:28:20;;;;;;;;;;;18.20;65.50;;;;;;5020224;28;19931;-65
2020/12/25 12:30:47;;;;;;;;;;;18.20;64.90;;;;;;5039467;28;19998;-66
2020/12/25 12:33:13;;;;;;;;;;;18.20;64.80;;;;;;5037856;28;20288;-64
2020/12/25 12:35:39;;;;;;;;;;;18.20;65.10;;;;;;5013738;28;20019;-64
2020/12/25 12:38:05;;;;;;;;;;;18.20;64.90;;;;;;5000368;28;20004;-64
2020/12/25 12:40:30;;;;;;;;;;;18.20;64.30;;;;;;5013731;28;19913;-66
2020/12/25 12:42:56;;;;;;;;;;;18.20;64.30;;;;;;5029863;28;20310;-65
2020/12/25 12:45:21;;;;;;;;;;;18.20;64.00;;;;;;5028697;28;20007;-65
2020/12/25 12:47:47;;;;;;;;;;;18.30;63.80;;;;;;5013719;28;19959;-65
2020/12/25 12:50:12;;;;;;;;;;;18.20;64.00;;;;;;5033414;28;19917;-64
2020/12/25 12:52:37;;;;;;;;;;;18.20;63.70;;;;;;5033581;28;19908;-64
2020/12/25 12:55:03;;;;;;;;;;;18.20;63.40;;;;;;5033155;28;20028;-64
2020/12/25 12:57:28;;;;;;;;;;;18.20;62.90;;;;;;5011352;28;19909;-64
2020/12/25 12:59:54;;;;;;;;;;;18.20;62.60;;;;;;5011147;28;19974;-65
2020/12/25 13:02:19;;;;;;;;;;;18.20;62.50;;;;;;5028011;28;19917;-63
2020/12/25 13:04:45;;;;;;;;;;;18.20;62.10;;;;;;5012587;28;20004;-64
2020/12/25 13:07:10;;;;;;;;;;;18.10;61.90;;;;;;5030611;28;19945;-65
2020/12/25 13:09:36;;;;;;;;;;;18.10;61.90;;;;;;5028651;28;20370;-65
2020/12/25 13:12:01;;;;;;;;;;;18.20;61.40;;;;;;5031217;28;19979;-64
2020/12/25 13:14:27;;;;;;;;;;;18.20;62.00;;;;;;5012350;28;19982;-64
2020/12/25 13:16:52;;;;;;;;;;;18.10;61.70;;;;;;5030760;28;20423;-66
2020/12/25 13:19:18;;;;;;;;;;;18.10;62.00;;;;;;5028014;28;19909;-65
2020/12/25 13:21:44;;;;;;;;;;;18.10;62.10;;;;;;5025593;28;19916;-66
2020/12/25 13:24:09;;;;;;;;;;;18.10;62.40;;;;;;5029663;28;19995;-65
2020/12/25 13:26:35;;;;;;;;;;;18.20;62.70;;;;;;5010771;28;19909;-64
2020/12/25 13:29:00;;;;;;;;;;;18.20;62.90;;;;;;5013115;28;19913;-66
2020/12/25 13:31:26;;;;;;;;;;;18.20;62.30;;;;;;5013252;28;19909;-64
2020/12/25 13:33:52;;;;;;;;;;;18.20;62.30;;;;;;5013198;28;19909;-65
2020/12/25 13:36:18;;;;;;;;;;;18.20;62.20;;;;;;5031641;28;19913;-65
2020/12/25 13:38:44;;;;;;;;;;;18.20;62.40;;;;;;5030556;28;20341;-66
2020/12/25 13:41:11;;;;;;;;;;;18.20;62.70;;;;;;5029159;28;19917;-65
2020/12/25 13:43:37;;;;;;;;;;;18.20;63.00;;;;;;5011845;28;19955;-65
2020/12/25 13:46:03;;;;;;;;;;;18.20;63.20;;;;;;5013041;28;19936;-65
2020/12/25 13:48:29;;;;;;;;;;;18.10;63.20;;;;;;5012611;28;19991;-64
2020/12/25 13:50:54;;;;;;;;;;;18.10;63.60;;;;;;5030405;28;19913;-64
2020/12/25 13:53:21;;;;;;;;;;;18.10;63.60;;;;;;5026507;28;19913;-65
2020/12/25 13:55:47;;;;;;;;;;;18.10;63.60;;;;;;5012263;28;19909;-64
2020/12/25 13:58:12;;;;;;;;;;;18.10;63.50;;;;;;5015784;28;19995;-65
2020/12/25 14:00:38;;;;;;;;;;;18.10;63.80;;;;;;5012436;28;19952;-65
2020/12/25 14:03:03;;;;;;;;;;;18.10;63.80;;;;;;5012016;28;19917;-66
2020/12/25 14:05:29;;;;;;;;;;;18.10;63.00;;;;;;5014579;28;19939;-64
2020/12/25 14:07:54;;;;;;;;;;;18.00;62.80;;;;;;5037570;28;20482;-66
2020/12/25 14:10:20;;;;;;;;;;;18.00;62.70;;;;;;5029347;28;19905;-67